Time;durP1;ratioP1;P1;durP2;ratioP2;P2;SDS_P1;SDS_P2;PMS_P1;PMS_P2;Temp;Humidity;BMP_temperature;BMP_pressure;BME280_temperature;BME280_humidity;BME280_pressure;Samples;Min_cycle;Max_cycle;Signal;HPM_P1;HPM_P2
2022/04/15 00:00:43;;;;;;;7.07;3.10;;;8.90;99.90;;;;;;5036387;28;20259;-82
2022/04/15 00:03:11;;;;;;;4.57;2.23;;;8.90;99.90;;;;;;5054768;28;20620;-82
2022/04/15 00:05:37;;;;;;;4.27;1.93;;;8.90;99.90;;;;;;5054737;28;20211;-83
2022/04/15 00:08:20;;;;;;;3.10;2.07;;;8.90;99.90;;;;;;5054705;28;20475;-82
2022/04/15 00:10:46;;;;;;;3.40;1.83;;;8.90;70.10;;;;;;5053596;28;20444;-82
2022/04/15 00:13:14;;;;;;;6.30;2.30;;;8.90;54.90;;;;;;5054467;28;20452;-82
2022/04/15 00:15:40;;;;;;;3.43;2.50;;;8.80;56.90;;;;;;5054057;28;20174;-83
2022/04/15 00:18:05;;;;;;;4.43;2.53;;;8.90;92.50;;;;;;5054342;28;20505;-82
2022/04/15 00:20:32;;;;;;;4.17;1.63;;;8.80;42.80;;;;;;5054195;28;20421;-82
2022/04/15 00:23:01;;;;;;;3.90;1.60;;;8.80;90.10;;;;;;5051608;28;20229;-82
2022/04/15 00:25:26;;;;;;;3.77;2.03;;;8.80;96.00;;;;;;5052949;28;20526;-81
2022/04/15 00:27:53;;;;;;;2.90;2.30;;;8.90;90.70;;;;;;5054037;28;21166;-83
2022/04/15 00:30:19;;;;;;;4.40;2.57;;;8.80;94.60;;;;;;5053730;28;20171;-83
2022/04/15 00:32:44;;;;;;;3.37;2.37;;;8.80;99.90;;;;;;5052758;28;20415;-82
2022/04/15 00:35:10;;;;;;;4.43;2.67;;;8.80;99.90;;;;;;5053815;28;20258;-82
2022/04/15 00:37:36;;;;;;;3.67;1.97;;;8.90;99.90;;;;;;5053783;28;20170;-83
2022/04/15 00:40:04;;;;;;;7.30;3.40;;;8.90;99.90;;;;;;5053936;28;20434;-83
2022/04/15 00:42:33;;;;;;;3.33;1.70;;;8.90;99.90;;;;;;5053877;28;20420;-82
2022/04/15 00:45:00;;;;;;;3.90;2.70;;;8.90;99.90;;;;;;5053237;28;20481;-82
2022/04/15 00:47:56;;;;;;;5.30;2.37;;;8.90;99.90;;;;;;5053774;28;20421;-83
2022/04/15 00:50:24;;;;;;;4.90;3.30;;;8.90;99.90;;;;;;5034225;28;20498;-82
2022/04/15 00:52:52;;;;;;;5.17;2.80;;;8.90;99.90;;;;;;5053585;28;20465;-82
2022/04/15 00:55:19;;;;;;;6.37;3.30;;;8.80;99.90;;;;;;5035693;28;20422;-82
2022/04/15 00:57:52;;;;;;;4.10;2.93;;;8.80;99.90;;;;;;5053310;28;20430;-83
2022/04/15 01:00:19;;;;;;;5.93;2.87;;;8.90;99.90;;;;;;5050636;28;20462;-83
2022/04/15 01:02:45;;;;;;;7.30;3.80;;;8.90;99.90;;;;;;5053733;28;20850;-83
2022/04/15 01:05:12;;;;;;;6.10;2.80;;;8.90;99.90;;;;;;5035550;28;20479;-82
2022/04/15 01:07:40;;;;;;;11.40;4.67;;;8.90;99.90;;;;;;5053606;28;20421;-83
2022/04/15 01:10:09;;;;;;;4.50;2.70;;;8.80;99.90;;;;;;5053443;28;20529;-82
2022/04/15 01:12:37;;;;;;;6.27;3.23;;;8.80;99.90;;;;;;5049880;28;20442;-83
2022/04/15 01:15:07;;;;;;;7.43;3.40;;;8.90;99.90;;;;;;5052587;28;20413;-84
2022/04/15 01:17:35;;;;;;;7.63;3.50;;;8.80;99.90;;;;;;5034756;28;20413;-82
2022/04/15 01:20:03;;;;;;;5.80;4.13;;;8.80;99.90;;;;;;5052606;28;20415;-82
2022/04/15 01:22:32;;;;;;;5.70;3.10;;;8.80;99.90;;;;;;5053652;28;20772;-82
2022/04/15 01:24:58;;;;;;;6.40;2.87;;;8.80;99.90;;;;;;5053220;28;20468;-82
2022/04/15 01:27:27;;;;;;;8.50;3.77;;;8.70;99.90;;;;;;5053248;28;20757;-83
2022/04/15 01:29:53;;;;;;;5.40;3.00;;;8.80;99.90;;;;;;5053130;28;20211;-83
2022/04/15 01:32:18;;;;;;;5.70;2.83;;;8.70;99.90;;;;;;5053083;28;20892;-83
2022/04/15 01:34:44;;;;;;;5.83;2.60;;;8.70;99.90;;;;;;5053192;28;20178;-83
2022/04/15 01:37:13;;;;;;;6.33;2.50;;;8.70;99.90;;;;;;5053280;28;20225;-83
2022/04/15 01:39:39;;;;;;;7.60;2.93;;;8.80;99.90;;;;;;5035370;28;20208;-84
2022/04/15 01:42:05;;;;;;;7.57;2.80;;;8.70;99.90;;;;;;5053165;28;20452;-83
2022/04/15 01:44:39;;;;;;;4.60;2.37;;;8.70;99.90;;;;;;5051382;28;20519;-84
2022/04/15 01:47:05;;;;;;;4.97;2.90;;;8.70;99.90;;;;;;5053009;28;20685;-84
2022/04/15 01:49:43;;;;;;;5.47;3.10;;;8.80;99.90;;;;;;5035090;28;20425;-83
2022/04/15 01:52:09;;;;;;;4.50;2.77;;;8.80;99.90;;;;;;5052974;28;20417;-85
2022/04/15 01:54:35;;;;;;;5.63;2.70;;;8.80;99.90;;;;;;5052921;28;20947;-84
2022/04/15 01:57:01;;;;;;;9.43;3.20;;;8.70;99.90;;;;;;5052802;28;20431;-84
2022/04/15 01:59:29;;;;;;;5.43;3.03;;;8.70;99.90;;;;;;5052463;28;20423;-83
2022/04/15 02:01:55;;;;;;;6.17;2.50;;;8.70;99.90;;;;;;5052780;28;20189;-84
2022/04/15 02:04:27;;;;;;;5.87;3.73;;;8.70;99.90;;;;;;5052690;28;20812;-84
2022/04/15 02:06:56;;;;;;;6.57;4.10;;;8.70;99.90;;;;;;5052335;28;20181;-82
2022/04/15 02:09:22;;;;;;;7.67;4.10;;;8.60;99.90;;;;;;5052873;28;20413;-82
2022/04/15 02:11:48;;;;;;;6.10;3.10;;;8.70;99.90;;;;;;5052812;28;20966;-82
2022/04/15 02:14:14;;;;;;;10.03;4.70;;;8.70;99.90;;;;;;5052289;28;20178;-82
2022/04/15 02:16:40;;;;;;;8.27;3.53;;;8.60;99.90;;;;;;5052700;28;20170;-83
2022/04/15 02:19:06;;;;;;;8.20;4.70;;;8.60;99.90;;;;;;5043601;28;20587;-83
2022/04/15 02:21:32;;;;;;;10.13;5.47;;;8.60;99.90;;;;;;5032558;28;21011;-83
2022/04/15 02:23:57;;;;;;;6.47;3.50;;;8.60;99.90;;;;;;5032248;28;20516;-82
2022/04/15 02:26:23;;;;;;;7.60;3.90;;;8.60;99.90;;;;;;5031529;28;20432;-82
2022/04/15 02:28:49;;;;;;;12.60;6.73;;;8.60;99.90;;;;;;5031800;28;20238;-82
2022/04/15 02:31:15;;;;;;;9.43;4.40;;;8.60;99.90;;;;;;5040820;28;20437;-82
2022/04/15 02:33:41;;;;;;;12.23;6.77;;;8.60;99.90;;;;;;5052225;28;20200;-83
2022/04/15 02:36:06;;;;;;;16.80;8.87;;;8.60;99.90;;;;;;5052218;28;20590;-83
2022/04/15 02:38:32;;;;;;;12.53;7.80;;;8.60;99.90;;;;;;5052169;28;20428;-83
2022/04/15 02:41:03;;;;;;;12.00;8.57;;;8.50;99.90;;;;;;5034418;28;20210;-83
2022/04/15 02:43:31;;;;;;;16.70;11.97;;;8.50;99.90;;;;;;5052401;28;20283;-83
2022/04/15 02:46:02;;;;;;;18.23;12.90;;;8.50;99.90;;;;;;5051533;28;20564;-83
2022/04/15 02:48:29;;;;;;;13.43;10.23;;;8.60;99.90;;;;;;5051717;28;20409;-82
2022/04/15 02:51:01;;;;;;;14.67;9.40;;;8.60;99.90;;;;;;5051715;28;20444;-83
2022/04/15 02:53:27;;;;;;;15.37;8.40;;;8.60;99.90;;;;;;5051820;28;20429;-84
2022/04/15 02:55:53;;;;;;;10.50;6.20;;;8.50;99.90;;;;;;5051830;28;20452;-84
2022/04/15 02:58:20;;;;;;;10.07;7.27;;;8.50;99.90;;;;;;5051638;28;20855;-84
2022/04/15 03:00:46;;;;;;;10.40;6.10;;;8.60;99.90;;;;;;5033441;28;20512;-83
2022/04/15 03:03:11;;;;;;;7.50;5.90;;;8.50;99.90;;;;;;5051928;28;20458;-82
2022/04/15 03:05:40;;;;;;;7.60;5.70;;;8.50;99.90;;;;;;5051616;28;20506;-83
2022/04/15 03:08:07;;;;;;;11.23;4.90;;;8.50;99.90;;;;;;5051926;28;20175;-83
2022/04/15 03:10:32;;;;;;;6.00;4.87;;;8.50;99.90;;;;;;5034131;28;20467;-82
2022/04/15 03:12:58;;;;;;;9.10;5.70;;;8.50;99.90;;;;;;5051967;28;20455;-82
2022/04/15 03:15:26;;;;;;;8.53;5.43;;;8.50;99.90;;;;;;5033839;28;20180;-81
2022/04/15 03:17:52;;;;;;;7.90;5.60;;;8.50;99.90;;;;;;5051970;28;20457;-81
2022/04/15 03:20:18;;;;;;;10.40;5.97;;;8.50;99.90;;;;;;5051890;28;20441;-81
2022/04/15 03:22:44;;;;;;;9.37;5.93;;;8.50;99.90;;;;;;5051893;28;20172;-81
2022/04/15 03:25:14;;;;;;;13.93;6.30;;;8.50;99.90;;;;;;5051916;28;20307;-81
2022/04/15 03:27:40;;;;;;;8.50;6.27;;;8.50;99.90;;;;;;5051590;28;20799;-81
2022/04/15 03:30:07;;;;;;;10.13;5.30;;;8.50;99.90;;;;;;5051467;28;20470;-82
2022/04/15 03:32:32;;;;;;;8.20;4.13;;;8.50;99.90;;;;;;5051389;28;20419;-82
2022/04/15 03:34:59;;;;;;;7.33;4.90;;;8.50;99.90;;;;;;5050968;28;20426;-82
2022/04/15 03:37:25;;;;;;;5.83;3.87;;;8.50;99.90;;;;;;5054258;28;20206;-81
2022/04/15 03:39:52;;;;;;;8.07;4.67;;;8.50;99.90;;;;;;5055064;28;20539;-81
2022/04/15 03:42:17;;;;;;;4.90;4.37;;;8.50;99.90;;;;;;5055177;28;20501;-82
2022/04/15 03:44:43;;;;;;;7.07;4.80;;;8.40;99.90;;;;;;5054693;28;20496;-81
2022/04/15 03:47:09;;;;;;;6.13;4.57;;;8.40;99.90;;;;;;5055207;28;20539;-82
2022/04/15 03:49:34;;;;;;;6.17;4.33;;;8.40;99.90;;;;;;5055119;28;20215;-81
2022/04/15 03:52:00;;;;;;;5.57;4.40;;;8.40;99.90;;;;;;5036704;28;20639;-82
2022/04/15 03:54:25;;;;;;;8.50;4.70;;;8.40;99.90;;;;;;5055091;28;20243;-82
2022/04/15 03:56:51;;;;;;;7.10;4.70;;;8.40;99.90;;;;;;5054783;28;20177;-83
2022/04/15 03:59:17;;;;;;;12.13;5.40;;;8.30;99.90;;;;;;5054580;28;20196;-83
2022/04/15 04:01:43;;;;;;;7.90;4.70;;;8.30;99.90;;;;;;5037199;28;20329;-82
2022/04/15 04:04:09;;;;;;;7.30;5.90;;;8.40;99.90;;;;;;5054511;28;20465;-83
2022/04/15 04:06:39;;;;;;;6.47;4.80;;;8.30;99.90;;;;;;5047093;28;20932;-83
2022/04/15 04:09:05;;;;;;;7.27;5.17;;;8.30;99.90;;;;;;5034685;28;20525;-84
2022/04/15 04:11:30;;;;;;;10.83;6.40;;;8.40;99.90;;;;;;5034879;28;20432;-83
2022/04/15 04:13:56;;;;;;;7.87;4.70;;;8.40;99.90;;;;;;5016696;28;20495;-82
2022/04/15 04:16:21;;;;;;;7.30;4.93;;;8.40;99.90;;;;;;5034667;28;20245;-81
2022/04/15 04:18:47;;;;;;;11.00;6.83;;;8.40;99.90;;;;;;5052094;28;20188;-83
2022/04/15 04:21:13;;;;;;;9.70;5.77;;;8.40;99.90;;;;;;5036652;28;20185;-83
2022/04/15 04:23:39;;;;;;;8.93;5.63;;;8.40;99.90;;;;;;5055113;28;20173;-84
2022/04/15 04:26:05;;;;;;;13.40;6.80;;;8.30;99.90;;;;;;5054703;28;20204;-84
2022/04/15 04:28:34;;;;;;;12.27;7.23;;;8.30;99.90;;;;;;5054467;28;20835;-84
2022/04/15 04:31:00;;;;;;;13.87;7.10;;;8.40;99.90;;;;;;5054298;28;20454;-84
2022/04/15 04:33:25;;;;;;;10.53;7.00;;;8.30;99.90;;;;;;5036548;28;20914;-83
2022/04/15 04:35:51;;;;;;;11.93;6.73;;;8.40;99.90;;;;;;5054360;28;20456;-83
2022/04/15 04:38:17;;;;;;;10.80;7.07;;;8.40;99.90;;;;;;5054353;28;20166;-85
2022/04/15 04:40:43;;;;;;;13.30;8.20;;;8.40;99.90;;;;;;5054501;28;20480;-84
2022/04/15 04:43:09;;;;;;;13.97;8.87;;;8.40;99.90;;;;;;5036164;28;20278;-84
2022/04/15 04:45:42;;;;;;;14.50;8.17;;;8.40;99.90;;;;;;5053930;28;20470;-85
2022/04/15 04:48:07;;;;;;;13.27;9.03;;;8.40;99.90;;;;;;5053087;28;20508;-84
2022/04/15 04:50:33;;;;;;;16.17;10.27;;;8.40;99.90;;;;;;5054188;28;20526;-83
2022/04/15 04:52:59;;;;;;;18.47;10.30;;;8.40;99.90;;;;;;5054394;28;20172;-84
2022/04/15 04:55:24;;;;;;;18.87;8.63;;;8.40;99.90;;;;;;5054542;28;20174;-85
2022/04/15 04:57:50;;;;;;;15.77;10.27;;;8.50;99.90;;;;;;5053976;28;20167;-83
2022/04/15 05:00:17;;;;;;;22.37;12.43;;;8.50;99.90;;;;;;5053626;28;20210;-85
2022/04/15 05:02:44;;;;;;;20.60;12.30;;;8.50;99.90;;;;;;5054068;28;20429;-85
2022/04/15 05:05:10;;;;;;;19.00;10.93;;;8.50;99.90;;;;;;5053632;28;21000;-85
2022/04/15 05:07:36;;;;;;;20.07;12.93;;;8.50;99.90;;;;;;5053597;28;20410;-85
2022/04/15 05:10:03;;;;;;;19.70;13.47;;;8.50;99.90;;;;;;5053200;28;20418;-85
2022/04/15 05:12:29;;;;;;;22.63;13.07;;;8.50;99.90;;;;;;5053695;28;20171;-84
2022/04/15 05:14:54;;;;;;;19.30;12.30;;;8.50;99.90;;;;;;5053037;28;20436;-84
2022/04/15 05:17:19;;;;;;;26.40;14.93;;;8.50;99.90;;;;;;5053844;28;20273;-85
2022/04/15 05:19:45;;;;;;;21.90;13.73;;;8.50;99.90;;;;;;5053688;28;20186;-84
2022/04/15 05:22:12;;;;;;;22.20;11.80;;;8.60;99.90;;;;;;5053705;28;20178;-85
2022/04/15 05:24:38;;;;;;;24.57;14.33;;;8.60;99.90;;;;;;5053435;28;20230;-85
2022/04/15 05:27:04;;;;;;;24.07;14.40;;;8.60;99.90;;;;;;5053157;28;20462;-84
2022/04/15 05:29:30;;;;;;;22.13;13.10;;;8.60;99.90;;;;;;5035002;28;20466;-84
2022/04/15 05:32:03;;;;;;;22.67;13.10;;;8.60;99.90;;;;;;5053502;28;20824;-82
2022/04/15 05:34:28;;;;;;;23.50;12.70;;;8.60;99.90;;;;;;5053423;28;20175;-83
2022/04/15 05:36:54;;;;;;;24.77;14.70;;;8.60;99.90;;;;;;5053285;28;20427;-83
2022/04/15 05:39:19;;;;;;;22.40;13.67;;;8.70;99.90;;;;;;5030544;28;20533;-82
2022/04/15 05:41:45;;;;;;;22.50;13.70;;;8.70;99.90;;;;;;5052757;28;20180;-83
2022/04/15 05:44:13;;;;;;;21.33;12.77;;;8.80;99.90;;;;;;5052470;28;20678;-83
2022/04/15 05:46:39;;;;;;;25.27;15.37;;;8.80;99.90;;;;;;5052262;28;20183;-83
2022/04/15 05:49:06;;;;;;;23.37;14.23;;;8.80;99.90;;;;;;5052879;28;20469;-83
2022/04/15 05:51:32;;;;;;;21.60;12.40;;;8.80;99.90;;;;;;5052765;28;20169;-83
2022/04/15 05:53:58;;;;;;;16.70;10.50;;;8.80;99.90;;;;;;5052752;28;20411;-83
2022/04/15 05:56:23;;;;;;;18.60;10.23;;;8.80;99.90;;;;;;5052731;28;20181;-82
2022/04/15 05:58:51;;;;;;;23.77;12.87;;;8.90;99.90;;;;;;5052044;28;20205;-84
2022/04/15 06:01:17;;;;;;;20.27;11.17;;;8.80;99.90;;;;;;5052678;28;20177;-83
2022/04/15 06:03:43;;;;;;;23.73;12.90;;;8.80;99.90;;;;;;5043796;28;20802;-84
2022/04/15 06:06:08;;;;;;;19.50;11.90;;;8.80;99.90;;;;;;5032368;28;20211;-84
2022/04/15 06:08:34;;;;;;;17.43;9.57;;;8.90;99.90;;;;;;5032646;28;20244;-82
2022/04/15 06:10:59;;;;;;;20.87;12.13;;;8.90;99.90;;;;;;5032582;28;20219;-83
2022/04/15 06:13:25;;;;;;;19.17;12.10;;;8.90;99.90;;;;;;5013812;28;20228;-85
2022/04/15 06:15:57;;;;;;;15.77;10.67;;;8.90;99.90;;;;;;5032244;28;20196;-82
2022/04/15 06:18:24;;;;;;;21.57;14.10;;;8.80;99.90;;;;;;5032489;28;20741;-83
2022/04/15 06:20:50;;;;;;;16.10;11.67;;;8.90;99.90;;;;;;5032284;28;20817;-82
2022/04/15 06:23:17;;;;;;;18.87;11.90;;;8.90;99.90;;;;;;5032305;28;20446;-83
2022/04/15 06:25:43;;;;;;;18.77;11.47;;;8.90;99.90;;;;;;5031938;28;21176;-83
2022/04/15 06:28:09;;;;;;;21.70;11.10;;;8.90;99.90;;;;;;5031988;28;20471;-82
2022/04/15 06:30:35;;;;;;;21.23;11.90;;;9.00;99.90;;;;;;5032091;28;20424;-84
2022/04/15 06:33:01;;;;;;;21.03;12.60;;;9.00;99.90;;;;;;5014588;28;20478;-83
2022/04/15 06:35:27;;;;;;;20.90;12.40;;;9.00;99.90;;;;;;5032364;28;20427;-83
2022/04/15 06:37:53;;;;;;;23.20;13.07;;;9.00;99.90;;;;;;5048410;28;20414;-83
2022/04/15 06:40:18;;;;;;;23.17;15.83;;;9.10;99.90;;;;;;5034257;28;20184;-83
2022/04/15 06:42:44;;;;;;;20.80;12.37;;;9.10;99.90;;;;;;5051775;28;20225;-83
2022/04/15 06:45:12;;;;;;;22.30;13.30;;;9.10;99.90;;;;;;5051928;28;20269;-83
2022/04/15 06:47:38;;;;;;;19.93;11.97;;;9.10;99.90;;;;;;5034429;28;20177;-84
2022/04/15 06:50:03;;;;;;;18.90;12.67;;;9.20;99.90;;;;;;5034155;28;20480;-83
2022/04/15 06:52:29;;;;;;;22.03;12.17;;;9.10;99.90;;;;;;5050932;28;20813;-83
2022/04/15 06:54:54;;;;;;;25.50;12.27;;;9.00;99.90;;;;;;5050839;28;20770;-83
2022/04/15 06:57:20;;;;;;;30.20;14.73;;;9.10;99.90;;;;;;5034055;28;20651;-83
2022/04/15 06:59:45;;;;;;;23.40;13.03;;;9.10;99.90;;;;;;5052098;28;20169;-84
2022/04/15 07:02:11;;;;;;;18.47;11.23;;;9.10;99.90;;;;;;5052287;28;20514;-84
2022/04/15 07:04:36;;;;;;;22.27;12.90;;;9.10;99.90;;;;;;5051941;28;20217;-84
2022/04/15 07:07:02;;;;;;;22.87;14.67;;;9.20;99.90;;;;;;5051891;28;20252;-84
2022/04/15 07:09:28;;;;;;;21.57;12.47;;;9.30;99.90;;;;;;5034302;28;20177;-83
2022/04/15 07:11:53;;;;;;;26.13;13.20;;;9.40;99.90;;;;;;5054429;28;20177;-84
2022/04/15 07:14:19;;;;;;;25.07;13.20;;;9.50;99.90;;;;;;5055872;28;20180;-84
2022/04/15 07:16:45;;;;;;;23.20;10.80;;;9.50;99.90;;;;;;5056120;28;20182;-83
2022/04/15 07:19:11;;;;;;;27.33;12.67;;;9.50;99.90;;;;;;5037979;28;20180;-84
2022/04/15 07:21:38;;;;;;;19.40;11.00;;;9.40;99.90;;;;;;5055787;28;20578;-84
2022/04/15 07:24:04;;;;;;;18.40;10.50;;;9.40;99.90;;;;;;5055692;28;20477;-84
2022/04/15 07:26:30;;;;;;;23.47;10.90;;;9.40;99.90;;;;;;5055671;28;20499;-83
2022/04/15 07:28:56;;;;;;;21.90;11.70;;;9.40;99.90;;;;;;5055143;28;20475;-84
2022/04/15 07:31:22;;;;;;;19.57;10.60;;;9.30;99.90;;;;;;5055641;28;20468;-84
2022/04/15 07:33:47;;;;;;;20.83;10.27;;;9.20;99.90;;;;;;5055486;28;20509;-85
2022/04/15 07:36:42;;;;;;;25.47;10.70;;;9.20;99.90;;;;;;5055477;28;20878;-84
2022/04/15 07:39:09;;;;;;;17.20;9.60;;;9.20;99.90;;;;;;5055114;28;20180;-84
2022/04/15 07:41:36;;;;;;;24.97;10.33;;;9.30;99.90;;;;;;5055442;28;20419;-84
2022/04/15 07:44:12;;;;;;;23.80;12.07;;;9.30;99.90;;;;;;5055135;28;20449;-84
2022/04/15 07:46:39;;;;;;;17.50;10.63;;;9.30;99.90;;;;;;5053436;28;20513;-84
2022/04/15 07:49:05;;;;;;;17.17;11.70;;;9.30;99.90;;;;;;5055335;28;20416;-85
2022/04/15 07:51:32;;;;;;;19.80;11.90;;;9.40;99.90;;;;;;5055116;28;20430;-85
2022/04/15 07:53:57;;;;;;;17.70;10.27;;;9.40;99.90;;;;;;5050906;28;20433;-85
2022/04/15 07:56:23;;;;;;;20.30;10.30;;;9.40;99.90;;;;;;5054728;28;20822;-85
2022/04/15 07:58:50;;;;;;;18.47;10.60;;;9.40;99.90;;;;;;5054350;28;20237;-84
2022/04/15 08:01:19;;;;;;;19.50;10.63;;;9.50;99.90;;;;;;5054698;28;20168;-83
2022/04/15 08:03:46;;;;;;;23.37;12.40;;;9.60;99.90;;;;;;5054677;28;20430;-83
2022/04/15 08:06:14;;;;;;;21.10;11.27;;;9.60;99.90;;;;;;5054550;28;20921;-84
2022/04/15 08:08:41;;;;;;;15.50;10.13;;;9.60;99.90;;;;;;5054703;28;20415;-84
2022/04/15 08:11:06;;;;;;;21.83;10.40;;;9.50;99.90;;;;;;5053307;28;20445;-84
2022/04/15 08:13:32;;;;;;;19.87;10.77;;;9.60;99.90;;;;;;5054280;28;20781;-84
2022/04/15 08:15:58;;;;;;;16.77;10.90;;;9.50;99.90;;;;;;5036545;28;20260;-84
2022/04/15 08:18:24;;;;;;;17.83;10.03;;;9.50;99.90;;;;;;5054385;28;20280;-84
2022/04/15 08:20:52;;;;;;;23.57;11.57;;;9.60;99.90;;;;;;5020056;28;20465;-84
2022/04/15 08:23:18;;;;;;;17.47;10.10;;;9.80;99.90;;;;;;5052174;28;20896;-84
2022/04/15 08:25:44;;;;;;;15.53;9.50;;;9.90;99.90;;;;;;5036726;28;20471;-84
2022/04/15 08:28:16;;;;;;;20.20;10.70;;;9.90;99.90;;;;;;5054141;28;20576;-84
2022/04/15 08:30:41;;;;;;;18.13;10.13;;;10.00;99.90;;;;;;5054555;28;20445;-85
2022/04/15 08:33:07;;;;;;;13.87;9.03;;;10.00;99.90;;;;;;5054713;28;20441;-83
2022/04/15 08:35:34;;;;;;;16.93;10.73;;;9.90;99.90;;;;;;5054653;28;20172;-85
2022/04/15 08:38:00;;;;;;;17.87;9.80;;;9.80;99.90;;;;;;5054396;28;20480;-87
2022/04/15 08:40:34;;;;;;;13.10;9.57;;;9.90;99.90;;;;;;5036611;28;20510;-82
2022/04/15 08:43:02;;;;;;;17.17;8.73;;;9.80;99.90;;;;;;5054230;28;20420;-81
2022/04/15 08:45:28;;;;;;;18.00;11.93;;;9.90;99.90;;;;;;5052945;28;20475;-82
2022/04/15 08:47:59;;;;;;;15.77;9.47;;;10.00;99.90;;;;;;5053566;28;20412;-82
2022/04/15 08:50:25;;;;;;;12.97;9.40;;;10.00;99.90;;;;;;5036544;28;20913;-81
2022/04/15 08:52:55;;;;;;;19.27;10.73;;;10.20;99.90;;;;;;5054012;28;20419;-82
2022/04/15 08:55:25;;;;;;;16.40;10.67;;;10.30;99.90;;;;;;5054170;28;20950;-82
2022/04/15 08:57:52;;;;;;;15.07;10.30;;;10.20;99.90;;;;;;5054277;28;20418;-82
2022/04/15 09:00:19;;;;;;;19.20;10.60;;;10.00;99.90;;;;;;5035018;28;20528;-82
2022/04/15 09:02:45;;;;;;;17.60;10.30;;;10.00;99.90;;;;;;5054191;28;20407;-83
2022/04/15 09:05:12;;;;;;;21.90;11.13;;;10.10;99.90;;;;;;5053460;28;20472;-82
2022/04/15 09:07:39;;;;;;;22.27;13.50;;;10.30;99.90;;;;;;5035795;28;20926;-82
2022/04/15 09:10:07;;;;;;;17.57;12.90;;;10.40;99.90;;;;;;5036218;28;20909;-82
2022/04/15 09:12:36;;;;;;;21.33;11.50;;;10.40;99.90;;;;;;5054092;28;20428;-82
2022/04/15 09:15:07;;;;;;;20.10;10.90;;;10.40;99.90;;;;;;5053516;28;20972;-82
2022/04/15 09:17:35;;;;;;;16.63;9.87;;;10.40;99.90;;;;;;5036096;28;21011;-82
2022/04/15 09:20:02;;;;;;;15.63;9.77;;;10.40;99.90;;;;;;5053958;28;20412;-82
2022/04/15 09:22:28;;;;;;;18.40;10.00;;;10.40;99.90;;;;;;5053960;28;20413;-82
2022/04/15 09:24:53;;;;;;;18.53;10.00;;;10.40;99.90;;;;;;5053843;28;20480;-83
2022/04/15 09:27:23;;;;;;;15.67;9.73;;;10.70;99.90;;;;;;5035815;28;20229;-82
2022/04/15 09:29:51;;;;;;;15.33;9.73;;;10.80;99.90;;;;;;5053524;28;20182;-81
2022/04/15 09:32:18;;;;;;;17.33;10.50;;;10.90;99.90;;;;;;5053610;28;20905;-82
2022/04/15 09:34:56;;;;;;;15.60;10.20;;;11.20;99.90;;;;;;5053167;28;20471;-82
2022/04/15 09:37:25;;;;;;;14.80;8.60;;;11.50;28.40;;;;;;5053545;28;20916;-82
2022/04/15 09:40:18;;;;;;;13.33;9.20;;;11.60;3.60;;;;;;5053511;28;20468;-82
2022/04/15 09:42:44;;;;;;;16.10;10.37;;;11.40;1.00;;;;;;5053558;28;20419;-83
2022/04/15 09:45:29;;;;;;;13.27;8.97;;;11.30;22.60;;;;;;5048836;28;20472;-82
2022/04/15 09:48:18;;;;;;;15.73;9.80;;;11.10;33.20;;;;;;5045677;28;20435;-82
2022/04/15 09:50:44;;;;;;;15.67;10.33;;;10.90;90.00;;;;;;5040863;28;20936;-87
2022/04/15 09:53:16;;;;;;;12.90;8.97;;;10.90;99.90;;;;;;5052126;28;20425;-89
2022/04/15 09:55:46;;;;;;;14.93;10.30;;;11.00;99.90;;;;;;5034809;28;20193;-88
2022/04/15 09:58:13;;;;;;;15.90;10.90;;;10.90;99.90;;;;;;5032387;28;20800;-84
2022/04/15 10:00:40;;;;;;;16.23;11.30;;;10.80;99.90;;;;;;5051898;28;20425;-87
2022/04/15 10:03:11;;;;;;;16.73;11.67;;;10.80;99.90;;;;;;5052067;28;20409;-84
2022/04/15 10:05:38;;;;;;;17.40;10.93;;;10.50;99.90;;;;;;5051173;28;20809;-85
2022/04/15 10:08:05;;;;;;;16.43;10.73;;;10.60;99.90;;;;;;5052330;28;20408;-89
2022/04/15 10:10:31;;;;;;;19.83;12.53;;;10.60;99.90;;;;;;5055632;28;20427;-86
2022/04/15 10:13:05;;;;;;;14.97;10.40;;;10.60;99.90;;;;;;5038330;28;20424;-85
2022/04/15 10:15:32;;;;;;;16.50;11.90;;;10.60;99.90;;;;;;5056068;28;20409;-85
2022/04/15 10:18:02;;;;;;;15.80;11.63;;;10.80;99.90;;;;;;5031475;28;20478;-89
2022/04/15 10:20:29;;;;;;;19.73;12.27;;;10.80;99.90;;;;;;5042726;28;20906;-88
2022/04/15 10:23:00;;;;;;;18.90;12.10;;;10.70;99.90;;;;;;5033579;28;20433;-87
2022/04/15 10:25:27;;;;;;;15.80;10.07;;;10.60;99.90;;;;;;5051933;28;21134;-89
2022/04/15 10:27:53;;;;;;;15.20;10.13;;;10.70;99.90;;;;;;5033577;28;20518;-87
2022/04/15 10:30:21;;;;;;;16.40;10.80;;;10.70;99.90;;;;;;5052132;28;20419;-88
2022/04/15 10:32:48;;;;;;;22.10;11.87;;;10.70;99.90;;;;;;5052035;28;20171;-87
2022/04/15 10:35:22;;;;;;;18.53;12.63;;;10.50;99.90;;;;;;5051876;28;20529;-87
2022/04/15 10:37:55;;;;;;;22.30;11.60;;;10.50;99.90;;;;;;5032759;28;20421;-87
2022/04/15 10:40:22;;;;;;;17.17;10.93;;;10.60;99.90;;;;;;5048352;28;20510;-86
2022/04/15 10:42:48;;;;;;;20.30;12.70;;;10.60;99.90;;;;;;5048044;28;20427;-87
2022/04/15 10:45:34;;;;;;;18.73;12.67;;;10.60;99.90;;;;;;5030604;28;20471;-87
2022/04/15 10:48:01;;;;;;;20.97;13.00;;;10.60;99.90;;;;;;5054357;28;20176;-89
2022/04/15 10:50:29;;;;;;;22.90;13.07;;;10.70;99.90;;;;;;5049975;28;20428;-86
2022/04/15 10:53:18;;;;;;;18.57;12.30;;;10.80;99.90;;;;;;5036673;28;20451;-88
2022/04/15 10:55:52;;;;;;;19.23;12.50;;;10.70;99.90;;;;;;5038914;28;20429;-84
2022/04/15 10:58:18;;;;;;;16.37;12.17;;;10.80;99.90;;;;;;5055435;28;20423;-86
2022/04/15 11:03:32;;;;;;;28.50;12.80;;;10.80;99.90;;;;;;5055768;28;20415;-85
2022/04/15 11:05:59;;;;;;;22.10;13.73;;;10.80;99.90;;;;;;5055235;28;20920;-89
2022/04/15 11:08:27;;;;;;;20.60;10.87;;;10.80;99.90;;;;;;5055621;28;20406;-84
2022/04/15 11:11:03;;;;;;;17.27;10.60;;;10.70;99.90;;;;;;5055340;28;20418;-86
2022/04/15 11:13:59;;;;;;;16.03;12.13;;;10.80;99.90;;;;;;5055009;28;20412;-83
2022/04/15 11:16:40;;;;;;;18.80;10.87;;;10.70;99.90;;;;;;5054529;28;20424;-83
2022/04/15 11:19:07;;;;;;;18.87;12.03;;;10.80;99.90;;;;;;5043299;28;20442;-83
2022/04/15 11:21:36;;;;;;;21.33;13.37;;;10.80;99.90;;;;;;5038502;28;20419;-85
2022/04/15 11:24:06;;;;;;;18.73;12.33;;;10.70;99.90;;;;;;5042266;28;20491;-86
2022/04/15 11:26:33;;;;;;;15.57;10.80;;;10.50;99.90;;;;;;5034730;28;20476;-84
2022/04/15 11:29:03;;;;;;;19.53;10.53;;;10.50;99.90;;;;;;5033983;28;20490;-85
2022/04/15 11:31:34;;;;;;;19.07;11.07;;;10.40;99.90;;;;;;5033233;28;20437;-84
2022/04/15 11:34:10;;;;;;;17.23;10.67;;;10.50;99.90;;;;;;5033534;28;20844;-83
2022/04/15 11:36:40;;;;;;;19.30;9.83;;;10.60;99.90;;;;;;5035239;28;20420;-83
2022/04/15 11:39:09;;;;;;;16.73;10.90;;;10.50;99.90;;;;;;5017142;28;20924;-82
2022/04/15 11:41:34;;;;;;;18.07;10.80;;;10.60;99.90;;;;;;5034674;28;20552;-84
2022/04/15 11:44:05;;;;;;;17.97;10.93;;;10.70;99.90;;;;;;5036116;28;20448;-83
2022/04/15 11:46:36;;;;;;;16.10;10.50;;;10.80;99.90;;;;;;5053813;28;20300;-86
2022/04/15 11:49:04;;;;;;;20.60;11.03;;;10.70;99.90;;;;;;5053830;28;20463;-86
2022/04/15 11:51:30;;;;;;;11.73;8.73;;;10.70;99.90;;;;;;5034913;28;20492;-86
2022/04/15 11:53:57;;;;;;;11.03;7.33;;;10.60;99.90;;;;;;5035712;28;20425;-84
2022/04/15 11:56:26;;;;;;;9.77;5.93;;;10.50;99.90;;;;;;5052756;28;20161;-86
2022/04/15 11:58:52;;;;;;;13.83;7.00;;;10.40;99.90;;;;;;5053388;28;20408;-85
2022/04/15 12:01:30;;;;;;;10.90;6.33;;;10.50;99.90;;;;;;5035992;28;20448;-84
2022/04/15 12:03:56;;;;;;;15.97;6.93;;;10.50;99.90;;;;;;5031346;28;20250;-84
2022/04/15 12:06:26;;;;;;;13.80;6.83;;;10.50;99.90;;;;;;5036633;28;20468;-86
2022/04/15 12:08:52;;;;;;;12.30;7.40;;;10.40;99.90;;;;;;5053768;28;20215;-83
2022/04/15 12:11:25;;;;;;;15.53;6.77;;;10.30;99.90;;;;;;5035047;28;20420;-85
2022/04/15 12:14:05;;;;;;;9.60;6.73;;;10.20;99.90;;;;;;5035160;28;20414;-87
2022/04/15 12:16:32;;;;;;;12.90;6.80;;;10.10;99.90;;;;;;5035506;28;20907;-83
2022/04/15 12:18:59;;;;;;;8.27;6.17;;;10.20;99.90;;;;;;5036569;28;20488;-83
2022/04/15 12:21:29;;;;;;;8.53;5.57;;;10.30;99.90;;;;;;5054614;28;20409;-87
2022/04/15 12:23:59;;;;;;;9.17;5.03;;;10.30;99.90;;;;;;5036990;28;20819;-84
2022/04/15 12:26:24;;;;;;;9.57;5.27;;;10.40;99.90;;;;;;5031862;28;20495;-87
2022/04/15 12:31:34;;;;;;;32.23;22.03;;;10.60;99.90;;;;;;5052734;28;20261;-84
2022/04/15 12:34:01;;;;;;;9.63;6.53;;;10.70;99.90;;;;;;5054803;28;20425;-85
2022/04/15 12:36:44;;;;;;;9.23;8.17;;;10.80;99.90;;;;;;5055085;28;20175;-89
2022/04/15 12:39:10;;;;;;;8.53;4.53;;;10.60;99.90;;;;;;5055180;28;20409;-85
2022/04/15 12:41:43;;;;;;;6.80;4.63;;;10.50;99.90;;;;;;5055286;28;20405;-91
2022/04/15 12:44:43;;;;;;;9.53;4.90;;;10.20;99.90;;;;;;5054468;28;20990;-84
2022/04/15 12:47:15;;;;;;;8.20;5.60;;;10.40;99.90;;;;;;5054464;28;20417;-88
2022/04/15 12:49:41;;;;;;;7.70;4.47;;;10.20;99.90;;;;;;5054764;28;20491;-84
2022/04/15 12:52:14;;;;;;;7.43;4.03;;;10.10;99.90;;;;;;5054933;28;20445;-85